Time;durP1;ratioP1;P1;durP2;ratioP2;P2;SDS_P1;SDS_P2;PMS_P1;PMS_P2;Temp;Humidity;BMP_temperature;BMP_pressure;BME280_temperature;BME280_humidity;BME280_pressure;Samples;Min_cycle;Max_cycle;Signal;HPM_P1;HPM_P2
2023/03/03 00:01:34;;;;;;;14.30;13.67;;;18.90;43.50;;;;;;4976587;28;20530;-60
2023/03/03 00:04:01;;;;;;;15.40;14.20;;;18.90;43.60;;;;;;4991455;28;20487;-60
2023/03/03 00:06:29;;;;;;;13.40;12.73;;;18.90;43.60;;;;;;4991367;28;20570;-61
2023/03/03 00:08:56;;;;;;;15.33;14.17;;;18.90;43.50;;;;;;4991437;28;20570;-60
2023/03/03 00:11:24;;;;;;;14.53;13.63;;;18.80;43.40;;;;;;4984564;28;20535;-59
2023/03/03 00:13:53;;;;;;;14.43;13.73;;;18.80;43.40;;;;;;4971958;28;20484;-60
2023/03/03 00:16:26;;;;;;;14.73;14.10;;;18.80;43.40;;;;;;4971924;28;20526;-59
2023/03/03 00:18:54;;;;;;;14.77;14.07;;;18.80;43.40;;;;;;4971947;28;20499;-58
2023/03/03 00:21:28;;;;;;;14.30;13.70;;;18.80;43.40;;;;;;4991015;28;20458;-59
2023/03/03 00:23:58;;;;;;;14.50;13.80;;;18.80;43.40;;;;;;4991260;28;20964;-58
2023/03/03 00:26:32;;;;;;;15.50;14.60;;;18.80;43.40;;;;;;4991401;28;20817;-59
2023/03/03 00:29:00;;;;;;;14.27;13.57;;;18.80;43.40;;;;;;4990751;28;20465;-59
2023/03/03 00:31:31;;;;;;;14.67;13.93;;;18.80;43.40;;;;;;4971670;28;20458;-61
2023/03/03 00:34:04;;;;;;;13.33;12.83;;;18.80;43.50;;;;;;4971814;28;20519;-58
2023/03/03 00:36:37;;;;;;;13.97;13.47;;;18.80;43.50;;;;;;4971628;28;20452;-60
2023/03/03 00:39:18;;;;;;;15.23;14.20;;;18.80;43.50;;;;;;4971985;28;20514;-58
2023/03/03 00:41:49;;;;;;;14.27;13.67;;;18.80;43.50;;;;;;4971449;28;20494;-59
2023/03/03 00:44:43;;;;;;;14.97;14.27;;;18.80;43.50;;;;;;4971472;28;20546;-58
2023/03/03 00:47:31;;;;;;;14.83;14.10;;;18.80;43.50;;;;;;5005255;28;20591;-59
2023/03/03 00:50:28;;;;;;;14.27;13.67;;;18.70;43.40;;;;;;4972508;28;20444;-60
2023/03/03 00:53:07;;;;;;;14.17;13.57;;;18.70;43.50;;;;;;4971058;28;20451;-60
2023/03/03 00:55:34;;;;;;;14.40;13.70;;;18.70;43.40;;;;;;4971471;28;20470;-58
2023/03/03 00:58:03;;;;;;;15.13;14.43;;;18.70;43.40;;;;;;4971229;28;20554;-57
2023/03/03 01:00:30;;;;;;;14.13;13.43;;;18.70;43.50;;;;;;4981872;28;20486;-58
2023/03/03 01:02:59;;;;;;;14.73;13.90;;;18.70;43.50;;;;;;4990614;28;20443;-57
2023/03/03 01:05:26;;;;;;;15.90;15.10;;;18.70;43.40;;;;;;4990528;28;20493;-59
2023/03/03 01:07:53;;;;;;;16.20;15.40;;;18.70;43.40;;;;;;4990456;28;20522;-59
2023/03/03 01:10:20;;;;;;;14.50;13.80;;;18.70;43.40;;;;;;4981147;28;20531;-59
2023/03/03 01:12:47;;;;;;;15.57;14.67;;;18.70;43.40;;;;;;4970926;28;20487;-58
2023/03/03 01:15:16;;;;;;;15.20;14.50;;;18.70;43.40;;;;;;4971018;28;20531;-59
2023/03/03 01:17:43;;;;;;;15.40;14.60;;;18.70;43.40;;;;;;4972131;28;20464;-58
2023/03/03 01:20:13;;;;;;;16.60;15.70;;;18.70;43.40;;;;;;4990483;28;20876;-58
2023/03/03 01:22:40;;;;;;;15.50;14.57;;;18.70;43.40;;;;;;4990170;28;20538;-59
2023/03/03 01:25:07;;;;;;;16.53;15.63;;;18.70;43.40;;;;;;4990529;28;20534;-56
2023/03/03 01:27:36;;;;;;;16.53;15.63;;;18.70;43.40;;;;;;4989742;28;20562;-57
2023/03/03 01:30:03;;;;;;;15.93;14.93;;;18.70;43.40;;;;;;4970922;28;20483;-59
2023/03/03 01:32:32;;;;;;;16.70;15.70;;;18.70;43.40;;;;;;4970598;28;20483;-59
2023/03/03 01:34:59;;;;;;;14.30;13.60;;;18.70;43.40;;;;;;4970797;28;20484;-60
2023/03/03 01:37:26;;;;;;;15.60;14.63;;;18.60;43.30;;;;;;4970688;28;21018;-59
2023/03/03 01:39:53;;;;;;;15.73;14.93;;;18.60;43.20;;;;;;4988912;28;20891;-60
2023/03/03 01:42:21;;;;;;;15.40;14.60;;;18.60;43.20;;;;;;4989877;28;20541;-58
2023/03/03 01:44:49;;;;;;;15.63;14.73;;;18.60;43.20;;;;;;4990109;28;21005;-59
2023/03/03 01:47:17;;;;;;;15.73;14.90;;;18.70;43.30;;;;;;4990075;28;20486;-60
2023/03/03 01:49:51;;;;;;;16.70;15.80;;;18.70;43.30;;;;;;4972973;28;20567;-58
2023/03/03 01:52:26;;;;;;;15.87;14.97;;;18.60;43.20;;;;;;4970403;28;20866;-58
2023/03/03 01:54:56;;;;;;;15.83;14.87;;;18.60;43.20;;;;;;4970607;28;20482;-59
2023/03/03 01:57:28;;;;;;;15.67;14.67;;;18.60;43.20;;;;;;4970341;28;20503;-58
2023/03/03 01:59:57;;;;;;;15.43;14.53;;;18.60;43.30;;;;;;4988199;28;20490;-57
2023/03/03 02:02:27;;;;;;;16.40;15.40;;;18.60;43.30;;;;;;4989678;28;20478;-59
2023/03/03 02:04:56;;;;;;;16.97;16.03;;;18.60;43.30;;;;;;4989604;28;20870;-58
2023/03/03 02:07:27;;;;;;;15.60;14.70;;;18.60;43.20;;;;;;4989595;28;20861;-58
2023/03/03 02:09:59;;;;;;;16.50;15.40;;;18.60;43.30;;;;;;4989162;28;20459;-57
2023/03/03 02:12:32;;;;;;;16.40;15.40;;;18.60;43.30;;;;;;4989515;28;20478;-60
2023/03/03 02:14:59;;;;;;;18.03;16.83;;;18.60;43.30;;;;;;4989665;28;20458;-59
2023/03/03 02:17:26;;;;;;;16.07;15.07;;;18.60;43.20;;;;;;4989652;28;20558;-58
2023/03/03 02:20:01;;;;;;;16.33;15.33;;;18.60;43.30;;;;;;4972072;28;20886;-57
2023/03/03 02:22:37;;;;;;;16.43;15.33;;;18.60;43.20;;;;;;4970102;28;20483;-57
2023/03/03 02:25:08;;;;;;;16.23;15.10;;;18.60;43.30;;;;;;4970035;28;20967;-59
2023/03/03 02:27:37;;;;;;;16.13;15.27;;;18.60;43.30;;;;;;4979840;28;20578;-59
2023/03/03 02:30:15;;;;;;;15.27;14.47;;;18.60;43.40;;;;;;4989423;28;20486;-58
2023/03/03 02:32:42;;;;;;;17.37;16.37;;;18.60;43.30;;;;;;4989406;28;21024;-59
2023/03/03 02:35:31;;;;;;;17.20;16.00;;;18.60;43.30;;;;;;4989414;28;20479;-60
2023/03/03 02:38:09;;;;;;;16.23;15.23;;;18.50;43.20;;;;;;4984739;28;20556;-59
2023/03/03 02:40:40;;;;;;;16.70;15.33;;;18.50;43.20;;;;;;4990001;28;20442;-56
2023/03/03 02:43:09;;;;;;;15.90;15.10;;;18.50;43.30;;;;;;4989120;28;20478;-59
2023/03/03 02:45:42;;;;;;;15.43;14.43;;;18.50;43.40;;;;;;4989271;28;20479;-59
2023/03/03 02:48:09;;;;;;;17.27;16.17;;;18.50;43.40;;;;;;4972676;28;20570;-60
2023/03/03 02:50:36;;;;;;;14.60;13.90;;;18.50;43.40;;;;;;4969833;28;20527;-59
2023/03/03 02:53:03;;;;;;;16.80;15.70;;;18.50;43.30;;;;;;4969577;28;20619;-57
2023/03/03 02:55:30;;;;;;;16.73;15.63;;;18.50;43.30;;;;;;4986015;28;20493;-59
2023/03/03 02:57:57;;;;;;;15.80;15.00;;;18.50;43.30;;;;;;4988911;28;20499;-58
2023/03/03 03:00:25;;;;;;;15.83;14.93;;;18.50;43.20;;;;;;4989178;28;20530;-59
2023/03/03 03:02:52;;;;;;;15.67;14.87;;;18.50;43.20;;;;;;4988953;28;20529;-57
2023/03/03 03:05:19;;;;;;;16.60;15.70;;;18.50;43.30;;;;;;4973946;28;20452;-59
2023/03/03 03:07:46;;;;;;;16.00;15.10;;;18.50;43.30;;;;;;4969373;28;20578;-57
2023/03/03 03:10:13;;;;;;;16.10;15.20;;;18.50;43.30;;;;;;4969608;28;20621;-58
2023/03/03 03:12:40;;;;;;;15.53;14.60;;;18.50;43.30;;;;;;4975701;28;20478;-58
2023/03/03 03:15:08;;;;;;;16.10;15.20;;;18.50;43.30;;;;;;4989186;28;20937;-60
2023/03/03 03:17:37;;;;;;;17.07;16.13;;;18.50;43.20;;;;;;4992163;28;20471;-60
2023/03/03 03:20:05;;;;;;;17.00;16.00;;;18.50;43.20;;;;;;4992158;28;20497;-58
2023/03/03 03:22:32;;;;;;;16.80;15.87;;;18.50;43.10;;;;;;4986458;28;20532;-60
2023/03/03 03:24:59;;;;;;;15.63;14.73;;;18.50;43.10;;;;;;4989287;28;20482;-60
2023/03/03 03:27:25;;;;;;;17.03;16.13;;;18.50;43.10;;;;;;4991761;28;20569;-60
2023/03/03 03:29:52;;;;;;;15.63;14.77;;;18.50;43.10;;;;;;4992126;28;20966;-58
2023/03/03 03:32:19;;;;;;;17.50;16.40;;;18.50;43.10;;;;;;4988502;28;20462;-60
2023/03/03 03:34:48;;;;;;;16.10;15.20;;;18.50;43.10;;;;;;4972783;28;20530;-59
2023/03/03 03:37:15;;;;;;;16.43;15.43;;;18.50;43.10;;;;;;4972538;28;20439;-59
2023/03/03 03:39:42;;;;;;;15.67;14.77;;;18.50;43.10;;;;;;4972599;28;20543;-58
2023/03/03 03:42:10;;;;;;;15.60;14.70;;;18.50;43.10;;;;;;4973831;28;20475;-59
2023/03/03 03:44:37;;;;;;;17.13;16.13;;;18.50;43.20;;;;;;4991862;28;20958;-58
2023/03/03 03:47:04;;;;;;;15.77;14.80;;;18.50;43.30;;;;;;4991762;28;20826;-59
2023/03/03 03:49:31;;;;;;;16.90;15.70;;;18.40;43.20;;;;;;4991931;28;20482;-57
2023/03/03 03:51:59;;;;;;;15.20;14.37;;;18.50;43.30;;;;;;4991294;28;20493;-55
2023/03/03 03:54:26;;;;;;;14.40;13.60;;;18.40;43.20;;;;;;4972266;28;20878;-59
2023/03/03 03:56:53;;;;;;;17.27;16.10;;;18.40;43.20;;;;;;4972328;28;20494;-59
2023/03/03 03:59:20;;;;;;;17.23;16.10;;;18.40;43.20;;;;;;4972227;28;20472;-58
2023/03/03 04:01:48;;;;;;;16.17;15.17;;;18.40;43.20;;;;;;4972086;28;20480;-57
2023/03/03 04:04:16;;;;;;;16.87;15.87;;;18.40;43.20;;;;;;4990007;28;20461;-59
2023/03/03 04:06:43;;;;;;;16.37;15.37;;;18.40;43.70;;;;;;4991581;28;20474;-58
2023/03/03 04:09:11;;;;;;;15.60;14.80;;;18.40;43.20;;;;;;4991426;28;20578;-58
2023/03/03 04:11:38;;;;;;;16.17;15.17;;;18.40;43.20;;;;;;4991337;28;20878;-58
2023/03/03 04:14:05;;;;;;;16.97;15.83;;;18.40;43.20;;;;;;4974534;28;20486;-56
2023/03/03 04:16:32;;;;;;;16.90;15.80;;;18.40;43.20;;;;;;4972039;28;20486;-59
2023/03/03 04:18:59;;;;;;;16.10;15.00;;;18.40;43.20;;;;;;4971874;28;20499;-60
2023/03/03 04:21:27;;;;;;;17.53;16.40;;;18.40;43.10;;;;;;4971797;28;20959;-58
2023/03/03 04:23:53;;;;;;;16.57;15.60;;;18.40;43.10;;;;;;4972965;28;20459;-57
2023/03/03 04:26:22;;;;;;;16.77;15.60;;;18.30;43.10;;;;;;4971260;28;20488;-59
2023/03/03 04:28:49;;;;;;;16.10;15.20;;;18.40;43.20;;;;;;4971705;28;21000;-60
2023/03/03 04:31:16;;;;;;;15.77;14.83;;;18.40;43.20;;;;;;4978374;28;20530;-60
2023/03/03 04:33:43;;;;;;;18.30;16.90;;;18.30;43.10;;;;;;4991048;28;20486;-60
2023/03/03 04:36:10;;;;;;;16.83;15.63;;;18.30;43.10;;;;;;4991086;28;20490;-57
2023/03/03 04:38:36;;;;;;;17.60;16.50;;;18.40;43.10;;;;;;4991019;28;20906;-58
2023/03/03 04:41:04;;;;;;;17.67;16.57;;;18.40;43.10;;;;;;4985817;28;20495;-58
2023/03/03 04:43:32;;;;;;;16.40;15.40;;;18.40;43.10;;;;;;4971451;28;20490;-58
2023/03/03 04:45:59;;;;;;;16.37;15.27;;;18.30;43.00;;;;;;4971570;28;20531;-59
2023/03/03 04:48:26;;;;;;;16.50;15.60;;;18.40;43.10;;;;;;4971295;28;20530;-58
2023/03/03 04:50:53;;;;;;;15.40;14.40;;;18.40;43.00;;;;;;4974622;28;20479;-59
2023/03/03 04:53:19;;;;;;;17.00;15.80;;;18.40;43.00;;;;;;4990856;28;20487;-58
2023/03/03 04:55:46;;;;;;;18.20;17.00;;;18.40;43.00;;;;;;4990747;28;20489;-60
2023/03/03 04:58:14;;;;;;;17.80;16.50;;;18.40;43.10;;;;;;4990702;28;20495;-59
2023/03/03 05:00:43;;;;;;;18.57;17.17;;;18.40;43.10;;;;;;4988930;28;20512;-61
2023/03/03 05:03:12;;;;;;;16.73;15.77;;;18.40;43.10;;;;;;4971146;28;20503;-57
2023/03/03 05:05:38;;;;;;;17.07;15.60;;;18.40;43.20;;;;;;4971212;28;20483;-57
2023/03/03 05:08:06;;;;;;;16.43;15.47;;;18.50;43.30;;;;;;4972578;28;20579;-58
2023/03/03 05:10:33;;;;;;;16.43;15.33;;;18.50;43.80;;;;;;4990511;28;20482;-58
2023/03/03 05:13:00;;;;;;;17.60;16.30;;;18.50;43.20;;;;;;4990341;28;20490;-57
2023/03/03 05:15:27;;;;;;;19.70;18.10;;;18.50;43.10;;;;;;4990529;28;20539;-57
2023/03/03 05:17:55;;;;;;;19.67;17.73;;;18.50;43.10;;;;;;4990339;28;20878;-58
2023/03/03 05:20:23;;;;;;;18.70;17.27;;;18.50;43.10;;;;;;4971159;28;20488;-59
2023/03/03 05:22:50;;;;;;;18.03;16.73;;;18.50;43.10;;;;;;4970805;28;20530;-60
2023/03/03 05:25:17;;;;;;;18.47;16.63;;;18.60;43.20;;;;;;4970924;28;20486;-57
2023/03/03 05:27:44;;;;;;;17.27;16.00;;;18.50;43.20;;;;;;4970776;28;20907;-54
2023/03/03 05:30:12;;;;;;;17.30;16.20;;;18.60;43.30;;;;;;4970676;28;20868;-57
2023/03/03 05:32:39;;;;;;;18.57;17.00;;;18.60;43.30;;;;;;4970754;28;20531;-59
2023/03/03 05:35:08;;;;;;;18.20;16.63;;;18.60;43.30;;;;;;4970735;28;20480;-56
2023/03/03 05:37:35;;;;;;;18.87;17.30;;;18.60;43.20;;;;;;4969965;28;21017;-59
2023/03/03 05:40:03;;;;;;;19.27;17.67;;;18.70;43.30;;;;;;4970391;28;20498;-58
2023/03/03 05:42:30;;;;;;;22.07;19.70;;;18.70;43.30;;;;;;4970543;28;20491;-59
2023/03/03 05:44:57;;;;;;;22.47;20.03;;;18.80;43.60;;;;;;4970712;28;20483;-59
2023/03/03 05:47:23;;;;;;;22.87;20.47;;;18.80;44.00;;;;;;4970291;28;20541;-59
2023/03/03 05:49:50;;;;;;;27.20;22.23;;;18.80;44.60;;;;;;4970618;28;20515;-59
2023/03/03 05:52:18;;;;;;;22.53;20.47;;;18.80;45.50;;;;;;4969515;28;20488;-54
2023/03/03 05:54:46;;;;;;;23.77;19.97;;;18.90;46.60;;;;;;4969485;28;20498;-51
2023/03/03 05:57:12;;;;;;;20.57;18.50;;;18.90;47.90;;;;;;4969540;28;20495;-57
2023/03/03 05:59:39;;;;;;;19.77;17.77;;;18.90;48.90;;;;;;4969717;28;20487;-55
2023/03/03 06:02:06;;;;;;;20.50;18.33;;;19.00;49.10;;;;;;4970326;28;20930;-57
2023/03/03 06:04:33;;;;;;;21.53;17.47;;;19.00;49.50;;;;;;4970422;28;20458;-55
2023/03/03 06:07:00;;;;;;;18.67;17.07;;;19.10;49.50;;;;;;4970334;28;20484;-57
2023/03/03 06:09:29;;;;;;;18.43;16.70;;;19.10;49.20;;;;;;4970190;28;20530;-58
2023/03/03 06:11:55;;;;;;;20.40;18.50;;;19.20;48.90;;;;;;4970203;28;20490;-55
2023/03/03 06:14:23;;;;;;;18.53;16.90;;;19.20;48.60;;;;;;4970286;28;20476;-57
2023/03/03 06:16:49;;;;;;;19.90;18.17;;;19.30;48.30;;;;;;4970255;28;20523;-55
2023/03/03 06:19:16;;;;;;;20.63;18.67;;;19.30;47.90;;;;;;4970100;28;20498;-58
2023/03/03 06:21:43;;;;;;;19.50;17.40;;;19.30;47.60;;;;;;4970178;28;20483;-54
2023/03/03 06:24:10;;;;;;;20.13;18.13;;;19.40;47.40;;;;;;4970135;28;21015;-58
2023/03/03 06:26:39;;;;;;;19.70;17.70;;;19.40;47.10;;;;;;4969921;28;20886;-55
2023/03/03 06:29:06;;;;;;;19.50;17.73;;;19.40;47.00;;;;;;4969858;28;20583;-58
2023/03/03 06:31:33;;;;;;;19.10;17.03;;;19.50;46.90;;;;;;4969858;28;20819;-55
2023/03/03 06:34:00;;;;;;;18.67;17.07;;;19.50;46.60;;;;;;4969910;28;20538;-57
2023/03/03 06:36:26;;;;;;;20.27;18.37;;;19.50;46.50;;;;;;4970020;28;20479;-58
2023/03/03 06:38:53;;;;;;;17.83;16.27;;;19.50;46.30;;;;;;4969872;28;20471;-56
2023/03/03 06:41:20;;;;;;;20.30;18.60;;;19.50;46.10;;;;;;4969778;28;20483;-59
2023/03/03 06:43:48;;;;;;;19.00;17.50;;;19.60;46.10;;;;;;4969808;28;20490;-55
2023/03/03 06:46:16;;;;;;;18.50;17.20;;;19.60;45.90;;;;;;4969876;28;20483;-57
2023/03/03 06:48:43;;;;;;;18.40;16.40;;;19.60;45.80;;;;;;4969617;28;20488;-57
2023/03/03 06:51:22;;;;;;;20.07;18.30;;;19.60;45.60;;;;;;4973056;28;20483;-57
2023/03/03 06:53:49;;;;;;;16.80;15.00;;;19.70;45.60;;;;;;4973258;28;20487;-58
2023/03/03 06:56:18;;;;;;;19.07;17.57;;;19.70;45.50;;;;;;4973203;28;20483;-58
2023/03/03 06:58:45;;;;;;;17.50;16.30;;;19.70;45.40;;;;;;4973100;28;20824;-55
2023/03/03 07:01:16;;;;;;;18.83;17.07;;;19.70;45.20;;;;;;4973065;28;20875;-58
2023/03/03 07:03:44;;;;;;;18.63;16.80;;;19.70;45.10;;;;;;4973058;28;20534;-57
2023/03/03 07:06:20;;;;;;;18.30;16.57;;;19.70;45.00;;;;;;4972953;28;20906;-57
2023/03/03 07:08:47;;;;;;;15.87;14.60;;;19.80;45.00;;;;;;4972863;28;20578;-53
2023/03/03 07:11:18;;;;;;;17.37;15.97;;;19.80;44.90;;;;;;4972822;28;20539;-56
2023/03/03 07:13:47;;;;;;;17.77;16.53;;;19.80;44.80;;;;;;4972830;28;20462;-57
2023/03/03 07:16:17;;;;;;;17.57;16.17;;;19.80;44.70;;;;;;4972964;28;20490;-57
2023/03/03 07:18:50;;;;;;;18.33;16.83;;;19.80;44.60;;;;;;4972709;28;20495;-57
2023/03/03 07:21:19;;;;;;;17.40;16.23;;;19.90;44.60;;;;;;4972786;28;20448;-58
2023/03/03 07:23:48;;;;;;;18.57;16.80;;;19.80;44.40;;;;;;4972687;28;20984;-57
2023/03/03 07:26:17;;;;;;;16.87;15.57;;;19.90;44.40;;;;;;4972623;28;20491;-56
2023/03/03 07:28:48;;;;;;;17.40;16.07;;;19.90;44.30;;;;;;4972608;28;20574;-59
2023/03/03 07:31:29;;;;;;;18.30;16.80;;;19.90;44.30;;;;;;4972647;28;20538;-57
2023/03/03 07:33:59;;;;;;;18.77;16.97;;;19.90;44.10;;;;;;4972579;28;20983;-58
2023/03/03 07:36:29;;;;;;;16.90;15.37;;;20.00;44.10;;;;;;4972639;28;20542;-57
2023/03/03 07:38:58;;;;;;;18.47;16.87;;;20.00;44.00;;;;;;4972432;28;20500;-57
2023/03/03 07:41:26;;;;;;;17.87;16.20;;;20.00;44.00;;;;;;4972342;28;20494;-55
2023/03/03 07:43:54;;;;;;;18.80;17.10;;;20.00;43.90;;;;;;4972498;28;20547;-56
2023/03/03 07:46:35;;;;;;;18.10;16.50;;;20.00;43.90;;;;;;4972479;28;20494;-56
2023/03/03 07:49:10;;;;;;;18.43;17.13;;;20.00;43.80;;;;;;4972332;28;20599;-58
2023/03/03 07:51:40;;;;;;;16.77;15.53;;;20.10;43.80;;;;;;4972357;28;20455;-57
2023/03/03 07:54:29;;;;;;;17.70;16.40;;;20.10;43.80;;;;;;4972169;28;20965;-58
2023/03/03 07:56:57;;;;;;;20.20;18.60;;;20.10;43.60;;;;;;4972207;28;20522;-56
2023/03/03 07:59:25;;;;;;;19.13;17.57;;;20.10;43.60;;;;;;4972291;28;20874;-58
2023/03/03 08:01:57;;;;;;;18.90;17.10;;;20.10;43.50;;;;;;4971213;28;20452;-58
2023/03/03 08:04:28;;;;;;;18.10;16.60;;;20.10;43.50;;;;;;4972170;28;20457;-55
2023/03/03 08:06:56;;;;;;;17.37;15.93;;;20.10;43.40;;;;;;4972245;28;20874;-58
2023/03/03 08:09:48;;;;;;;19.17;17.57;;;20.20;43.50;;;;;;4972028;28;20488;-58
2023/03/03 08:12:37;;;;;;;16.83;15.63;;;20.20;43.40;;;;;;4971880;28;20448;-56
2023/03/03 08:15:24;;;;;;;16.30;15.00;;;20.20;43.30;;;;;;4972045;28;20491;-53
2023/03/03 08:17:54;;;;;;;17.23;15.53;;;20.20;43.20;;;;;;4971786;28;20542;-58
2023/03/03 08:20:52;;;;;;;16.80;15.53;;;20.20;43.20;;;;;;4971904;28;20447;-57
2023/03/03 08:23:20;;;;;;;17.53;16.00;;;20.20;43.10;;;;;;4971772;28;20484;-57
2023/03/03 08:25:49;;;;;;;15.37;14.17;;;20.30;43.20;;;;;;4971769;28;20955;-59
2023/03/03 08:28:16;;;;;;;16.60;15.30;;;20.20;43.00;;;;;;4971794;28;20506;-57
2023/03/03 08:30:44;;;;;;;13.67;12.70;;;20.30;43.10;;;;;;4971705;28;20571;-58
2023/03/03 08:33:13;;;;;;;15.80;14.40;;;20.20;42.90;;;;;;4971760;28;20819;-54
2023/03/03 08:35:40;;;;;;;14.33;13.23;;;20.30;43.00;;;;;;4971790;28;20484;-56
2023/03/03 08:38:07;;;;;;;15.80;14.10;;;20.30;42.90;;;;;;4971592;28;20554;-56
2023/03/03 08:40:35;;;;;;;15.50;14.17;;;20.30;42.90;;;;;;4972113;28;20487;-57
2023/03/03 08:43:02;;;;;;;14.83;13.63;;;20.30;42.80;;;;;;4971388;28;20494;-57
2023/03/03 08:45:29;;;;;;;15.10;14.00;;;20.30;42.80;;;;;;4971519;28;20986;-57
2023/03/03 08:47:56;;;;;;;13.27;12.47;;;20.30;42.70;;;;;;4971341;28;20506;-57
2023/03/03 08:50:24;;;;;;;13.70;12.50;;;20.30;42.70;;;;;;4971437;28;21041;-57
2023/03/03 08:52:51;;;;;;;15.90;14.63;;;20.30;42.60;;;;;;4971275;28;20472;-58
2023/03/03 08:55:18;;;;;;;15.73;14.60;;;20.40;42.70;;;;;;4971594;28;20543;-57
2023/03/03 08:57:45;;;;;;;15.43;14.23;;;20.30;42.60;;;;;;4971337;28;20927;-57
2023/03/03 09:00:15;;;;;;;15.77;14.50;;;20.40;42.60;;;;;;4971284;28;20967;-59
2023/03/03 09:02:43;;;;;;;15.20;13.90;;;20.40;42.60;;;;;;4971103;28;20486;-57
2023/03/03 09:05:10;;;;;;;15.50;14.10;;;20.40;42.50;;;;;;4971270;28;20483;-56
2023/03/03 09:07:39;;;;;;;13.23;12.30;;;20.40;42.50;;;;;;4971165;28;20843;-53
2023/03/03 09:10:07;;;;;;;14.43;13.30;;;20.40;42.40;;;;;;4971072;28;20578;-57
2023/03/03 09:12:37;;;;;;;15.40;14.10;;;20.40;42.50;;;;;;4971067;28;20498;-57
2023/03/03 09:15:24;;;;;;;14.63;13.63;;;20.40;42.40;;;;;;4971249;28;20480;-57
2023/03/03 09:17:51;;;;;;;14.63;13.50;;;20.40;42.30;;;;;;4970921;28;20842;-56
2023/03/03 09:20:34;;;;;;;16.03;14.60;;;20.40;42.30;;;;;;4970996;28;20556;-57
2023/03/03 09:23:32;;;;;;;17.27;15.73;;;20.40;42.30;;;;;;4970957;28;20452;-56
2023/03/03 09:26:17;;;;;;;14.17;13.00;;;20.40;42.30;;;;;;4970889;28;20459;-58
2023/03/03 09:28:44;;;;;;;14.53;13.13;;;20.50;42.20;;;;;;4970850;28;20502;-54
2023/03/03 09:31:24;;;;;;;13.27;12.37;;;20.50;42.20;;;;;;4970863;28;20535;-56
2023/03/03 09:33:54;;;;;;;14.60;13.50;;;20.50;42.20;;;;;;4970843;28;20483;-58
2023/03/03 09:36:25;;;;;;;15.83;14.53;;;20.50;42.20;;;;;;4970801;28;20672;-57
2023/03/03 09:38:55;;;;;;;14.20;13.00;;;20.50;42.20;;;;;;4970678;28;20503;-57
2023/03/03 09:41:58;;;;;;;15.67;14.50;;;20.50;42.10;;;;;;4970644;28;20460;-57
2023/03/03 09:44:56;;;;;;;14.40;13.20;;;20.50;42.10;;;;;;4970655;28;20483;-58
2023/03/03 09:47:39;;;;;;;14.40;13.20;;;20.50;42.10;;;;;;4970437;28;20500;-56
2023/03/03 09:50:17;;;;;;;14.87;13.80;;;20.50;42.00;;;;;;4970628;28;20574;-57
2023/03/03 09:52:55;;;;;;;15.83;14.43;;;20.50;42.00;;;;;;4970539;28;20495;-57
2023/03/03 09:55:36;;;;;;;15.53;14.33;;;20.50;42.00;;;;;;4970592;28;20491;-57
2023/03/03 09:58:16;;;;;;;14.23;13.07;;;20.50;42.00;;;;;;4970457;28;20475;-58
2023/03/03 10:00:55;;;;;;;14.80;13.33;;;20.50;41.90;;;;;;4970594;28;20542;-55
2023/03/03 10:03:54;;;;;;;15.63;14.53;;;20.60;42.00;;;;;;4970447;28;20890;-56
2023/03/03 10:06:27;;;;;;;14.60;13.40;;;20.60;42.00;;;;;;4959171;28;21008;-56
2023/03/03 10:09:08;;;;;;;15.20;13.97;;;20.60;41.90;;;;;;4970133;28;20551;-58
2023/03/03 10:11:44;;;;;;;13.40;12.47;;;20.60;41.90;;;;;;4970279;28;20479;-57
2023/03/03 10:14:31;;;;;;;15.07;13.97;;;20.60;41.90;;;;;;4970178;28;20998;-56
2023/03/03 10:17:20;;;;;;;14.27;13.17;;;20.60;41.80;;;;;;4969970;28;20888;-54
2023/03/03 10:20:00;;;;;;;13.10;12.20;;;20.60;41.80;;;;;;4970231;28;20484;-57
2023/03/03 10:22:34;;;;;;;15.83;14.50;;;20.60;41.70;;;;;;4969994;28;20963;-56
2023/03/03 10:25:10;;;;;;;15.33;13.90;;;20.60;41.80;;;;;;4969680;28;20518;-57
2023/03/03 10:27:51;;;;;;;15.13;13.83;;;20.60;41.80;;;;;;4970036;28;20510;-57
2023/03/03 10:30:27;;;;;;;14.57;13.47;;;20.60;41.70;;;;;;4970023;28;20920;-56
2023/03/03 10:32:59;;;;;;;14.20;13.10;;;20.60;41.70;;;;;;4969925;28;20447;-58
2023/03/03 10:35:46;;;;;;;16.00;14.70;;;20.60;41.60;;;;;;4969983;28;20951;-57
2023/03/03 10:38:26;;;;;;;15.20;14.00;;;20.60;41.60;;;;;;4969622;28;20598;-55
2023/03/03 10:40:58;;;;;;;15.17;13.97;;;20.60;41.60;;;;;;4969918;28;20543;-58
2023/03/03 10:43:44;;;;;;;14.67;13.57;;;20.70;41.60;;;;;;4969733;28;21014;-57
2023/03/03 10:46:45;;;;;;;15.70;14.13;;;20.70;41.60;;;;;;4969904;28;20490;-54
2023/03/03 10:49:26;;;;;;;14.03;12.93;;;20.60;41.50;;;;;;4969728;28;20510;-55
2023/03/03 10:52:08;;;;;;;15.27;13.93;;;20.70;41.60;;;;;;4969646;28;20452;-57
2023/03/03 10:54:50;;;;;;;13.37;12.57;;;20.70;41.60;;;;;;4969665;28;20894;-55
2023/03/03 10:57:22;;;;;;;13.53;12.43;;;20.70;41.60;;;;;;4969683;28;20499;-56
2023/03/03 11:00:04;;;;;;;14.10;12.77;;;20.70;41.60;;;;;;4969676;28;20523;-58
2023/03/03 11:02:38;;;;;;;15.93;14.57;;;20.70;41.50;;;;;;4969613;28;20531;-57
2023/03/03 11:05:22;;;;;;;14.60;13.63;;;20.70;41.50;;;;;;4969731;28;20505;-59
2023/03/03 11:07:55;;;;;;;14.77;13.63;;;20.70;41.50;;;;;;4969517;28;20507;-57
2023/03/03 11:10:40;;;;;;;15.53;14.30;;;20.70;41.40;;;;;;4969525;28;20483;-55
2023/03/03 11:13:16;;;;;;;14.80;13.80;;;20.70;42.00;;;;;;4969351;28;20479;-55
2023/03/03 11:15:56;;;;;;;15.23;13.93;;;20.70;41.40;;;;;;4969529;28;20865;-56
2023/03/03 11:18:35;;;;;;;14.37;13.20;;;20.70;41.90;;;;;;4969583;28;20943;-57
2023/03/03 11:21:09;;;;;;;13.70;12.77;;;20.70;41.30;;;;;;4969523;28;20543;-57
2023/03/03 11:24:01;;;;;;;15.03;13.70;;;20.70;41.30;;;;;;4969496;28;20548;-56
2023/03/03 11:26:55;;;;;;;13.83;12.90;;;20.70;41.30;;;;;;4966865;28;20564;-58
2023/03/03 11:29:32;;;;;;;15.87;14.77;;;20.70;41.30;;;;;;4963077;28;20570;-58
2023/03/03 11:32:10;;;;;;;15.30;13.97;;;20.70;41.30;;;;;;4969231;28;20488;-59
2023/03/03 11:34:50;;;;;;;15.00;13.97;;;20.70;41.30;;;;;;4969370;28;20495;-56
2023/03/03 11:37:24;;;;;;;15.17;14.10;;;20.70;41.30;;;;;;4971166;28;20982;-54
2023/03/03 11:39:56;;;;;;;14.63;13.60;;;20.70;41.30;;;;;;4972639;28;20488;-57
2023/03/03 11:42:29;;;;;;;16.23;14.73;;;20.70;41.20;;;;;;4972638;28;20883;-58
2023/03/03 11:45:01;;;;;;;15.77;14.50;;;20.70;41.20;;;;;;4972575;28;20531;-58
2023/03/03 11:47:37;;;;;;;14.13;13.13;;;20.70;41.20;;;;;;4972633;28;20495;-57
2023/03/03 11:50:08;;;;;;;17.20;15.90;;;20.80;41.30;;;;;;4972287;28;20566;-58
2023/03/03 11:52:44;;;;;;;15.10;13.90;;;20.70;41.20;;;;;;4972289;28;20479;-58
2023/03/03 11:55:17;;;;;;;14.77;13.47;;;20.80;41.20;;;;;;4972425;28;20498;-57
2023/03/03 11:57:50;;;;;;;14.50;13.40;;;20.70;41.20;;;;;;4972314;28;20517;-56
2023/03/03 12:00:28;;;;;;;15.40;14.10;;;20.80;41.30;;;;;;4972530;28;20848;-58
2023/03/03 12:03:29;;;;;;;14.80;13.60;;;20.80;41.20;;;;;;4972218;28;20444;-58
2023/03/03 12:06:03;;;;;;;14.73;13.60;;;20.80;41.20;;;;;;4972254;28;20448;-57
2023/03/03 12:08:43;;;;;;;14.33;13.10;;;20.80;41.20;;;;;;4972226;28;20502;-59
2023/03/03 12:11:21;;;;;;;14.37;13.07;;;20.80;41.20;;;;;;4972376;28;20515;-58
2023/03/03 12:13:57;;;;;;;14.70;13.50;;;20.80;41.20;;;;;;4973907;28;20535;-59
2023/03/03 12:16:38;;;;;;;14.27;13.20;;;20.80;41.20;;;;;;4977758;28;20459;-59
2023/03/03 12:19:19;;;;;;;14.03;12.87;;;20.80;41.20;;;;;;4978243;28;20791;-57
2023/03/03 12:22:06;;;;;;;13.37;12.33;;;20.80;41.20;;;;;;4978139;28;20444;-58
2023/03/03 12:24:56;;;;;;;14.90;13.50;;;20.80;41.10;;;;;;4978016;28;20855;-58
2023/03/03 12:27:29;;;;;;;15.70;14.50;;;20.80;41.10;;;;;;4979182;28;20499;-59
2023/03/03 12:30:09;;;;;;;16.10;14.80;;;20.80;41.10;;;;;;4975397;28;20523;-59
2023/03/03 12:32:55;;;;;;;15.47;14.37;;;20.80;41.10;;;;;;4974568;28;20527;-60
2023/03/03 12:35:31;;;;;;;14.00;12.87;;;20.80;41.10;;;;;;4972763;28;20459;-58
2023/03/03 12:38:07;;;;;;;14.63;13.67;;;20.80;41.10;;;;;;4971894;28;20503;-58
2023/03/03 12:40:35;;;;;;;12.10;11.30;;;20.80;41.10;;;;;;4972441;28;20476;-59
2023/03/03 12:43:18;;;;;;;12.40;11.70;;;20.80;41.00;;;;;;4972010;28;20483;-57
2023/03/03 12:45:55;;;;;;;13.30;12.30;;;20.80;41.00;;;;;;4972114;28;20452;-56
2023/03/03 12:48:29;;;;;;;12.67;11.83;;;20.80;41.00;;;;;;4971625;28;20468;-56
2023/03/03 12:51:07;;;;;;;14.10;12.80;;;20.80;41.00;;;;;;4971704;28;20570;-56
2023/03/03 12:53:49;;;;;;;14.23;13.23;;;20.80;41.50;;;;;;4971594;28;20444;-56